Tarpon — WDG9715 — position and weather

sailwx.info

Track history (hours):
 
Tides and Currents Weather Stations Pressure Air Temp Water Temp Dewpoint Dewpoint Depression Visibility Wind Speed Wind Dir Waves Ship Positions

Tarpon

Owner: Kirby Offshore Marine, LLC, Staten Island, NY. More information available from US FCC via Universal Licensing System and Coast Guard Vessel Documentation Center.

Last reported at 2018-Jul-17 00:22 UTC. Time now 2018-Jul-21 03:31 UTC.
Position N 40°39' W 074°10'.

Length 37 m; draft 4.9 m.

Type: Tug. MMSI: 366920940.

Date/timePositionNaut miles runAvg speedWind from/ knotsBaromVisibWave heightAir tempDewpointWater temp
2018-Jul-17 00:22N 40°39' W 074°10'0 0.0
2018-Jul-16 23:30N 40°39' W 074°10'4 8.8
2018-Jul-16 23:00N 40°39' W 074°04'5 9.2
2018-Jul-16 22:31N 40°42' W 073°60'1 2.2
2018-Jul-16 22:00N 40°42' W 073°58'0 0.0
2018-Jul-16 21:30N 40°42' W 073°58'0 0.0
2018-Jul-16 21:00N 40°42' W 073°58'0 0.0
2018-Jul-16 20:30N 40°42' W 073°58'0 0.0
2018-Jul-16 19:57N 40°42' W 073°58'0 0.0
2018-Jul-16 19:30N 40°42' W 073°58'0 0.0
2018-Jul-16 19:00N 40°42' W 073°58'0 0.0
2018-Jul-16 18:27N 40°42' W 073°58'0 0.0
2018-Jul-16 18:00N 40°42' W 073°58'0 0.0
2018-Jul-16 17:30N 40°42' W 073°58'0 0.0
2018-Jul-16 17:00N 40°42' W 073°58'0 0.0
2018-Jul-16 16:30N 40°42' W 073°58'0 0.0
2018-Jul-16 16:00N 40°42' W 073°58'0 0.3
2018-Jul-16 15:30N 40°42' W 073°58'0 0.0
2018-Jul-16 15:00N 40°42' W 073°58'0 0.5
2018-Jul-16 14:30N 40°42' W 073°58'0 0.0
2018-Jul-16 14:00N 40°42' W 073°58'0 0.0
2018-Jul-16 13:30N 40°42' W 073°58'3 5.4
2018-Jul-16 13:00N 40°41' W 074°01'1 1.0
2018-Jul-16 12:30N 40°40' W 074°02'0 0.2
2018-Jul-16 12:00N 40°40' W 074°02'0 0.2
2018-Jul-16 11:30N 40°40' W 074°02'0 0.0
2018-Jul-16 11:00N 40°40' W 074°02'0 0.0
2018-Jul-16 10:30N 40°40' W 074°02'0 0.0
2018-Jul-16 10:00N 40°40' W 074°02'0 0.0
2018-Jul-16 09:30N 40°40' W 074°02'0 0.0
2018-Jul-16 08:57N 40°40' W 074°02'0 0.0
2018-Jul-16 08:30N 40°40' W 074°02'0 0.0
2018-Jul-16 08:00N 40°40' W 074°02'0 0.0
2018-Jul-16 07:30N 40°40' W 074°02'0 0.0
2018-Jul-16 07:00N 40°40' W 074°02'0 0.0
2018-Jul-16 06:30N 40°40' W 074°02'0 0.1
2018-Jul-16 06:00N 40°40' W 074°02'0 0.1
2018-Jul-16 05:30N 40°40' W 074°02'0 0.2
2018-Jul-16 05:00N 40°40' W 074°02'0 0.0
2018-Jul-16 04:30N 40°40' W 074°02'0 0.1
2018-Jul-16 04:00N 40°40' W 074°02'0 0.0
2018-Jul-16 03:30N 40°40' W 074°02'0 0.0
2018-Jul-16 03:00N 40°40' W 074°02'0 0.0
2018-Jul-16 02:30N 40°40' W 074°02'0 0.0
2018-Jul-16 02:00N 40°40' W 074°02'0 0.0
2018-Jul-16 01:30N 40°40' W 074°02'0 0.1
2018-Jul-16 01:00N 40°40' W 074°02'0 0.1
2018-Jul-16 00:30N 40°40' W 074°02'0 0.0
2018-Jul-15 23:57N 40°40' W 074°02'0 0.0
2018-Jul-15 23:30N 40°40' W 074°02'0 0.0
2018-Jul-15 23:00N 40°40' W 074°02'0 0.3
2018-Jul-15 22:30N 40°40' W 074°02'0 0.1
2018-Jul-15 22:00N 40°40' W 074°02'0 0.0
2018-Jul-15 21:30N 40°40' W 074°02'0 0.0
2018-Jul-15 21:00N 40°40' W 074°02'0 0.0
2018-Jul-15 20:30N 40°40' W 074°02'0 0.0
2018-Jul-15 20:00N 40°40' W 074°02'0 0.0
2018-Jul-15 19:25N 40°40' W 074°02'0 0.0
2018-Jul-15 19:00N 40°40' W 074°02'0 0.0
2018-Jul-15 18:24N 40°40' W 074°02'0 0.0
2018-Jul-15 18:00N 40°40' W 074°02'0 0.0
2018-Jul-15 17:30N 40°40' W 074°02'0 0.1
2018-Jul-15 16:15N 40°40' W 074°02'0 0.0
2018-Jul-15 15:48N 40°40' W 074°02'0 0.0
2018-Jul-15 15:13N 40°40' W 074°02'0 0.1
2018-Jul-15 15:00N 40°40' W 074°02'0 0.0
2018-Jul-15 14:10N 40°40' W 074°02'0 0.0
2018-Jul-15 14:00N 40°40' W 074°02'0 0.0
2018-Jul-15 13:27N 40°40' W 074°02'0 0.0
2018-Jul-15 12:55N 40°40' W 074°02'0 0.0
2018-Jul-15 12:24N 40°40' W 074°02'0 0.0
2018-Jul-15 12:00N 40°40' W 074°02'0 0.0
2018-Jul-15 11:28N 40°40' W 074°02'0 0.3
2018-Jul-15 10:58N 40°40' W 074°02'0 0.1
2018-Jul-15 10:30N 40°40' W 074°02'0 0.0
2018-Jul-15 10:00N 40°40' W 074°02'0 0.0
2018-Jul-15 09:30N 40°40' W 074°02'0 0.0
2018-Jul-15 09:00N 40°40' W 074°02'0 0.1
2018-Jul-15 08:30N 40°40' W 074°02'0 0.1
2018-Jul-15 08:00N 40°40' W 074°02'0 0.0
2018-Jul-15 07:30N 40°40' W 074°02'0 0.0
2018-Jul-15 07:00N 40°40' W 074°02'0 0.0
2018-Jul-15 06:30N 40°40' W 074°02'0 0.0
2018-Jul-15 06:00N 40°40' W 074°02'0 0.0
2018-Jul-15 05:30N 40°40' W 074°02'0 0.1
2018-Jul-15 05:00N 40°40' W 074°02'0 0.2
2018-Jul-15 04:30N 40°40' W 074°02'0 0.4
2018-Jul-15 04:00N 40°40' W 074°02'3 5.8
2018-Jul-15 03:30N 40°39' W 074°05'4 7.4
2018-Jul-15 03:00N 40°39' W 074°10'0 0.4
2018-Jul-15 02:25N 40°39' W 074°10'0 0.0
2018-Jul-14 10:53N 40°39' W 074°10'0 0.0
2018-Jul-14 10:23N 40°39' W 074°10'0 0.0
2018-Jul-14 09:59N 40°39' W 074°10'0 0.0
2018-Jul-14 09:29N 40°39' W 074°10'0 0.0
2018-Jul-14 08:59N 40°39' W 074°10'0 0.0
2018-Jul-14 08:26N 40°39' W 074°10'0 0.0
2018-Jul-14 07:59N 40°39' W 074°10'0 0.0
2018-Jul-14 07:17N 40°39' W 074°10'0 0.0
2018-Jul-14 06:56N 40°39' W 074°10'0 0.0
2018-Jul-14 06:29N 40°39' W 074°10'0 0.0
2018-Jul-14 05:59N 40°39' W 074°10'0 0.0
2018-Jul-14 05:17N 40°39' W 074°10'0 0.0
2018-Jul-14 04:11N 40°39' W 074°10'0 0.0
2018-Jul-14 03:35N 40°39' W 074°10'0 0.0
2018-Jul-14 03:29N 40°39' W 074°10'0 0.0
2018-Jul-14 02:59N 40°39' W 074°10'0 0.0
2018-Jul-14 02:29N 40°39' W 074°10'0 0.0
2018-Jul-14 01:59N 40°39' W 074°10'0 0.0
2018-Jul-14 01:29N 40°39' W 074°10'0 0.0
2018-Jul-14 00:59N 40°39' W 074°10'0 0.0
2018-Jul-14 00:05N 40°39' W 074°10'0 0.0
2018-Jul-13 23:41N 40°39' W 074°10'0 0.0
2018-Jul-13 23:29N 40°39' W 074°10'0 0.0
2018-Jul-13 22:59N 40°39' W 074°10'0 0.0
2018-Jul-13 22:29N 40°39' W 074°10'0 0.0
2018-Jul-13 21:59N 40°39' W 074°10'0 0.0
2018-Jul-13 20:41N 40°39' W 074°10'0 0.0
2018-Jul-13 20:23N 40°39' W 074°10'0 0.0
2018-Jul-13 19:17N 40°39' W 074°10'0 0.0
2018-Jul-13 18:53N 40°39' W 074°10'0 0.0
2018-Jul-13 18:17N 40°39' W 074°10'0 0.0
2018-Jul-13 17:56N 40°39' W 074°10'0 0.0
2018-Jul-13 17:29N 40°39' W 074°10'0 0.0
2018-Jul-13 16:59N 40°39' W 074°10'0 0.0
2018-Jul-13 16:29N 40°39' W 074°10'0 0.0
2018-Jul-13 15:59N 40°39' W 074°10'0 0.0
2018-Jul-13 15:29N 40°39' W 074°10'0 0.0
2018-Jul-13 14:53N 40°39' W 074°10'0 0.0
2018-Jul-13 13:59N 40°39' W 074°10'0 0.0
2018-Jul-13 13:23N 40°39' W 074°10'0 0.0
2018-Jul-13 12:59N 40°39' W 074°10'0 0.0
2018-Jul-13 12:26N 40°39' W 074°10'0 0.0
2018-Jul-13 11:59N 40°39' W 074°10'0 0.0
2018-Jul-13 11:29N 40°39' W 074°10'0 0.0
2018-Jul-13 10:53N 40°39' W 074°10'0 0.0
2018-Jul-13 10:29N 40°39' W 074°10'0 0.0
2018-Jul-13 09:59N 40°39' W 074°10'0 0.0
2018-Jul-13 09:29N 40°39' W 074°10'0 0.0
2018-Jul-13 08:59N 40°39' W 074°10'0 0.0
2018-Jul-13 08:29N 40°39' W 074°10'0 0.0
2018-Jul-13 07:59N 40°39' W 074°10'0 0.0
2018-Jul-13 07:29N 40°39' W 074°10'0 0.0
2018-Jul-13 06:59N 40°39' W 074°10'0 0.0
2018-Jul-13 06:29N 40°39' W 074°10'0 0.0
2018-Jul-13 05:59N 40°39' W 074°10'0 0.0
2018-Jul-13 05:29N 40°39' W 074°10'0 0.0
2018-Jul-13 04:59N 40°39' W 074°10'0 0.0
2018-Jul-13 04:29N 40°39' W 074°10'0 0.0
2018-Jul-13 03:59N 40°39' W 074°10'0 0.0
2018-Jul-13 03:29N 40°39' W 074°10'0 0.0
2018-Jul-13 02:59N 40°39' W 074°10'0 0.0
2018-Jul-13 02:29N 40°39' W 074°10'0 0.0
2018-Jul-13 01:59N 40°39' W 074°10'0 0.0
2018-Jul-13 01:26N 40°39' W 074°10'0 0.0
2018-Jul-13 00:59N 40°39' W 074°10'0 0.0
2018-Jul-13 00:29N 40°39' W 074°10'0 0.0
2018-Jul-12 23:59N 40°39' W 074°10'0 0.0
2018-Jul-12 23:29N 40°39' W 074°10'0 0.0
2018-Jul-12 22:59N 40°39' W 074°10'0 0.0
2018-Jul-12 22:29N 40°39' W 074°10'0 0.0
2018-Jul-12 21:59N 40°39' W 074°10'0 0.0
2018-Jul-12 21:23N 40°39' W 074°10'0 0.0
2018-Jul-12 20:59N 40°39' W 074°10'0 0.0
2018-Jul-12 20:29N 40°39' W 074°10'0 0.0
2018-Jul-12 19:59N 40°39' W 074°10'0 0.0
2018-Jul-12 19:29N 40°39' W 074°10'0 0.0
2018-Jul-12 18:59N 40°39' W 074°10'0 0.0
2018-Jul-12 18:29N 40°39' W 074°10'0 0.0
2018-Jul-12 17:59N 40°39' W 074°10'0 0.0
2018-Jul-12 17:26N 40°39' W 074°10'0 0.0
2018-Jul-12 16:59N 40°39' W 074°10'0 0.0
2018-Jul-12 16:29N 40°39' W 074°10'0 0.0
2018-Jul-12 15:59N 40°39' W 074°10'0 0.0
2018-Jul-12 15:29N 40°39' W 074°10'0 0.0
2018-Jul-12 14:59N 40°39' W 074°10'0 0.0
2018-Jul-12 14:29N 40°39' W 074°10'0 0.0
2018-Jul-12 13:59N 40°39' W 074°10'0 0.0
2018-Jul-12 13:23N 40°39' W 074°10'0 0.0
2018-Jul-12 12:59N 40°39' W 074°10'0 0.0
2018-Jul-12 12:29N 40°39' W 074°10'0 0.0
2018-Jul-12 11:59N 40°39' W 074°10'0 0.0
2018-Jul-12 11:29N 40°39' W 074°10'0 0.0
2018-Jul-12 10:56N 40°39' W 074°10'0 0.0
2018-Jul-12 10:29N 40°39' W 074°10'0 0.0
2018-Jul-12 09:59N 40°39' W 074°10'0 0.0
2018-Jul-12 09:26N 40°39' W 074°10'0 0.0
2018-Jul-12 08:59N 40°39' W 074°10'0 0.0
2018-Jul-12 08:29N 40°39' W 074°10'0 0.0
2018-Jul-12 07:59N 40°39' W 074°10'0 0.0
2018-Jul-12 07:29N 40°39' W 074°10'0 0.0
2018-Jul-12 06:50N 40°39' W 074°10'0 0.0
2018-Jul-12 06:26N 40°39' W 074°10'0 0.0
2018-Jul-12 05:59N 40°39' W 074°10'0 0.0
2018-Jul-12 05:29N 40°39' W 074°10'0 0.0
2018-Jul-12 04:59N 40°39' W 074°10'0 0.0
2018-Jul-12 04:29N 40°39' W 074°10'0 0.0
2018-Jul-12 03:59N 40°39' W 074°10'0 0.0
2018-Jul-12 03:29N 40°39' W 074°10'0 0.0
2018-Jul-12 02:59N 40°39' W 074°10'0 0.0
2018-Jul-12 02:29N 40°39' W 074°10'0 0.0
2018-Jul-12 01:59N 40°39' W 074°10'0 0.0
2018-Jul-12 01:29N 40°39' W 074°10'0 0.0
2018-Jul-12 00:59N 40°39' W 074°10'0 0.0
2018-Jul-12 00:29N 40°39' W 074°10'0 0.0
2018-Jul-11 23:56N 40°39' W 074°10'0 0.0
2018-Jul-11 23:11N 40°39' W 074°10'0 0.0
2018-Jul-11 22:53N 40°39' W 074°10'0 0.0
2018-Jul-11 22:29N 40°39' W 074°10'0 0.0
2018-Jul-11 21:59N 40°39' W 074°10'0 0.0
2018-Jul-11 20:05N 40°39' W 074°10'0 0.0
2018-Jul-11 19:53N 40°39' W 074°10'0 0.0
2018-Jul-11 19:23N 40°39' W 074°10'0 0.0
2018-Jul-11 18:59N 40°39' W 074°10'0 0.0
2018-Jul-11 18:26N 40°39' W 074°10'0 0.0
2018-Jul-11 17:53N 40°39' W 074°10'0 0.0
2018-Jul-11 17:23N 40°39' W 074°10'0 0.0
2018-Jul-11 16:53N 40°39' W 074°10'0 0.0
2018-Jul-11 16:29N 40°39' W 074°10'0 0.0
2018-Jul-11 15:59N 40°39' W 074°10'0 0.0
2018-Jul-11 15:29N 40°39' W 074°10'0 0.0
2018-Jul-11 14:53N 40°39' W 074°10'0 0.0
2018-Jul-11 14:29N 40°39' W 074°10'0 0.1
2018-Jul-11 14:00N 40°39' W 074°10'0 0.2
2018-Jul-11 13:27N 40°39' W 074°10'1 1.2
2018-Jul-11 13:00N 40°38' W 074°09'3 6.1
2018-Jul-11 12:30N 40°39' W 074°05'2 3.6
2018-Jul-11 12:00N 40°39' W 074°03'3 5.9
2018-Jul-11 11:30N 40°39' W 074°07'2 3.2
2018-Jul-11 11:00N 40°38' W 074°09'3 5.8
2018-Jul-11 10:30N 40°39' W 074°05'2 4.3
2018-Jul-11 09:58N 40°40' W 074°02'0 0.2
2018-Jul-11 09:28N 40°40' W 074°02'0 0.1
2018-Jul-11 08:58N 40°40' W 074°02'0 0.1
2018-Jul-11 08:28N 40°40' W 074°02'0 0.1
2018-Jul-11 07:58N 40°40' W 074°02'0 0.1
2018-Jul-11 07:28N 40°40' W 074°02'0 0.1
2018-Jul-11 06:58N 40°40' W 074°03'0 0.0
2018-Jul-11 06:28N 40°40' W 074°02'0 0.0
2018-Jul-11 05:58N 40°40' W 074°03'0 0.0
2018-Jul-11 05:28N 40°40' W 074°03'0 0.0
2018-Jul-11 04:58N 40°40' W 074°03'0 0.0
2018-Jul-11 04:28N 40°40' W 074°03'0 0.0
2018-Jul-11 03:58N 40°40' W 074°03'0 0.0
2018-Jul-11 03:28N 40°40' W 074°03'0 0.0
2018-Jul-11 02:58N 40°40' W 074°03'0 0.0
2018-Jul-11 02:28N 40°40' W 074°03'0 0.0
2018-Jul-11 01:58N 40°40' W 074°03'0 0.2
2018-Jul-11 01:28N 40°40' W 074°03'0 0.3
2018-Jul-11 00:58N 40°40' W 074°02'0 0.0
2018-Jul-11 00:28N 40°40' W 074°02'0 0.1
2018-Jul-10 23:58N 40°40' W 074°02'0 0.0
2018-Jul-10 23:28N 40°40' W 074°02'0 0.0
2018-Jul-10 22:58N 40°40' W 074°02'0 0.0
2018-Jul-10 22:28N 40°40' W 074°02'0 0.0
2018-Jul-10 21:58N 40°40' W 074°02'0 0.0
2018-Jul-10 21:28N 40°40' W 074°02'0 0.0
2018-Jul-10 20:55N 40°40' W 074°02'0 0.1
2018-Jul-10 20:28N 40°40' W 074°02'0 0.0
2018-Jul-10 19:58N 40°40' W 074°02'0 0.2
2018-Jul-10 19:28N 40°40' W 074°02'0 0.2
2018-Jul-10 18:55N 40°40' W 074°02'0 0.0
2018-Jul-10 18:28N 40°40' W 074°02'0 0.0
2018-Jul-10 17:58N 40°40' W 074°02'0 0.0
2018-Jul-10 17:28N 40°40' W 074°03'0 0.0
2018-Jul-10 16:55N 40°40' W 074°03'0 0.0
2018-Jul-10 16:28N 40°40' W 074°03'0 0.0
2018-Jul-10 15:58N 40°40' W 074°03'0 0.0
2018-Jul-10 15:28N 40°40' W 074°03'0 0.0
2018-Jul-10 14:58N 40°40' W 074°03'0 0.0
2018-Jul-10 14:28N 40°40' W 074°02'0 0.1
2018-Jul-10 13:58N 40°40' W 074°03'0 0.0
2018-Jul-10 13:28N 40°40' W 074°03'0 0.0
2018-Jul-10 12:58N 40°40' W 074°03'0 0.3
2018-Jul-10 12:28N 40°40' W 074°02'0 0.2
2018-Jul-10 11:58N 40°40' W 074°02'0 0.0
2018-Jul-10 11:28N 40°40' W 074°02'0 0.1
2018-Jul-10 10:58N 40°40' W 074°02'0 0.0
2018-Jul-10 10:28N 40°40' W 074°02'0 0.0
2018-Jul-10 09:58N 40°40' W 074°02'0 0.0
2018-Jul-10 09:28N 40°40' W 074°02'0 0.1
2018-Jul-10 08:58N 40°40' W 074°02'0 0.1
2018-Jul-10 08:28N 40°40' W 074°02'0 0.1
2018-Jul-10 07:58N 40°40' W 074°02'0 0.1
2018-Jul-10 07:28N 40°40' W 074°02'0 0.2
2018-Jul-10 06:58N 40°40' W 074°02'0 0.0
2018-Jul-10 06:28N 40°40' W 074°02'0 0.2
2018-Jul-10 05:58N 40°40' W 074°03'0 0.1
2018-Jul-10 05:28N 40°40' W 074°03'0 0.1
2018-Jul-10 04:58N 40°40' W 074°02'2 4.6
2018-Jul-10 04:30N 40°39' W 074°05'3 6.3
2018-Jul-10 03:58N 40°38' W 074°09'0 0.0
2018-Jul-10 03:30N 40°38' W 074°09'0 0.0
2018-Jul-10 02:58N 40°38' W 074°09'0 0.0
2018-Jul-10 02:28N 40°38' W 074°09'0 0.0
2018-Jul-10 01:55N 40°38' W 074°09'0 0.0
2018-Jul-10 01:28N 40°38' W 074°09'0 0.0
2018-Jul-10 00:58N 40°38' W 074°09'0 0.0
2018-Jul-10 00:28N 40°38' W 074°09'0 0.0
2018-Jul-09 23:55N 40°38' W 074°09'0 0.0
2018-Jul-09 23:28N 40°38' W 074°10'0 0.0
2018-Jul-09 22:58N 40°38' W 074°10'0 0.0
2018-Jul-09 22:28N 40°38' W 074°09'0 0.0
2018-Jul-09 21:58N 40°38' W 074°10'0 0.0
2018-Jul-09 21:28N 40°38' W 074°09'0 0.0
2018-Jul-09 20:58N 40°38' W 074°09'0 0.0
2018-Jul-09 20:28N 40°38' W 074°09'0 0.0
2018-Jul-09 19:58N 40°38' W 074°10'0 0.0
2018-Jul-09 19:28N 40°38' W 074°10'0 0.0
2018-Jul-09 19:00N 40°38' W 074°09'0 0.8
2018-Jul-09 18:30N 40°39' W 074°10'0 0.0
2018-Jul-09 18:00N 40°39' W 074°10'0 0.0
2018-Jul-09 17:30N 40°39' W 074°10'0 0.0
2018-Jul-09 17:00N 40°39' W 074°10'0 0.0
2018-Jul-09 16:30N 40°39' W 074°10'0 0.3
2018-Jul-09 16:00N 40°39' W 074°10'0 0.6
2018-Jul-09 15:30N 40°38' W 074°09'0 0.0
2018-Jul-09 15:00N 40°38' W 074°10'0 0.0
2018-Jul-09 14:29N 40°38' W 074°10'0 0.0
2018-Jul-09 14:00N 40°38' W 074°09'0 0.0
2018-Jul-09 13:30N 40°38' W 074°10'0 0.0
2018-Jul-09 13:00N 40°38' W 074°09'0 0.0
2018-Jul-09 12:30N 40°38' W 074°10'0 0.0
2018-Jul-09 12:00N 40°38' W 074°10'0 0.0
2018-Jul-09 11:30N 40°38' W 074°10'0 0.0
2018-Jul-09 11:00N 40°38' W 074°09'0 0.0
2018-Jul-09 10:30N 40°38' W 074°09'0 0.0
2018-Jul-09 10:00N 40°38' W 074°10'0 0.0
2018-Jul-09 09:30N 40°38' W 074°09'0 0.5
2018-Jul-09 09:00N 40°38' W 074°09'3 6.1
2018-Jul-09 08:30N 40°39' W 074°05'3 5.5
2018-Jul-09 08:00N 40°41' W 074°02'3 5.9
2018-Jul-09 07:30N 40°44' W 074°01'3 6.3
2018-Jul-09 07:00N 40°47' W 074°00'2 3.8
2018-Jul-09 06:22N 40°49' W 073°59'0 0.0
2018-Jul-09 03:40N 40°49' W 073°59'0 0.0
2018-Jul-09 02:46N 40°49' W 073°59'0 0.0
2018-Jul-08 07:34N 40°49' W 073°58'0 0.2
2018-Jul-08 07:28N 40°49' W 073°58'0 0.1
2018-Jul-08 06:52N 40°49' W 073°59'0 0.1
2018-Jul-08 06:22N 40°49' W 073°59'0 0.0
2018-Jul-08 05:04N 40°49' W 073°58'0 0.0
2018-Jul-08 04:58N 40°49' W 073°58'0 0.0
2018-Jul-08 04:28N 40°49' W 073°59'0 0.0
2018-Jul-07 19:04N 40°49' W 073°58'0 0.0
2018-Jul-07 18:34N 40°49' W 073°58'0 0.0
2018-Jul-07 18:22N 40°49' W 073°58'0 0.0
2018-Jul-07 17:58N 40°49' W 073°58'0 0.2
2018-Jul-07 17:22N 40°49' W 073°59'0 0.2
2018-Jul-07 16:58N 40°49' W 073°59'0 0.0
2018-Jul-07 14:52N 40°49' W 073°59'0 0.0
2018-Jul-07 14:22N 40°49' W 073°59'0 0.0
2018-Jul-07 13:52N 40°49' W 073°59'0 0.0
2018-Jul-07 10:34N 40°49' W 073°59'0 0.0
2018-Jul-07 10:22N 40°49' W 073°59'0 0.0
2018-Jul-07 08:58N 40°49' W 073°59'0 0.1
2018-Jul-07 08:28N 40°49' W 073°59'0 0.1
2018-Jul-07 07:40N 40°49' W 073°59'0 0.0
2018-Jul-07 06:40N 40°49' W 073°59'0 0.1
2018-Jul-07 05:46N 40°49' W 073°58'  
Track history (hours):
 
Tides and Currents Weather Stations Pressure Air Temp Water Temp Dewpoint Dewpoint Depression Visibility Wind Speed Wind Dir Waves Ship Positions

Tarpon

Owner: Kirby Offshore Marine, LLC, Staten Island, NY. More information available from US FCC via Universal Licensing System and Coast Guard Vessel Documentation Center.

Last reported at 2018-Jul-17 00:22 UTC. Time now 2018-Jul-21 03:31 UTC.
Position N 40°39' W 074°10'.

Length 37 m; draft 4.9 m.

Type: Tug. MMSI: 366920940.

Date/timePositionNaut miles runAvg speedWind from/ knotsBaromVisibWave heightAir tempDewpointWater temp
2018-Jul-17 00:22N 40°39' W 074°10'0 0.0
2018-Jul-16 23:30N 40°39' W 074°10'4 8.8
2018-Jul-16 23:00N 40°39' W 074°04'5 9.2
2018-Jul-16 22:31N 40°42' W 073°60'1 2.2
2018-Jul-16 22:00N 40°42' W 073°58'0 0.0
2018-Jul-16 21:30N 40°42' W 073°58'0 0.0
2018-Jul-16 21:00N 40°42' W 073°58'0 0.0
2018-Jul-16 20:30N 40°42' W 073°58'0 0.0
2018-Jul-16 19:57N 40°42' W 073°58'0 0.0
2018-Jul-16 19:30N 40°42' W 073°58'0 0.0
2018-Jul-16 19:00N 40°42' W 073°58'0 0.0
2018-Jul-16 18:27N 40°42' W 073°58'0 0.0
2018-Jul-16 18:00N 40°42' W 073°58'0 0.0
2018-Jul-16 17:30N 40°42' W 073°58'0 0.0
2018-Jul-16 17:00N 40°42' W 073°58'0 0.0
2018-Jul-16 16:30N 40°42' W 073°58'0 0.0
2018-Jul-16 16:00N 40°42' W 073°58'0 0.3
2018-Jul-16 15:30N 40°42' W 073°58'0 0.0
2018-Jul-16 15:00N 40°42' W 073°58'0 0.5
2018-Jul-16 14:30N 40°42' W 073°58'0 0.0
2018-Jul-16 14:00N 40°42' W 073°58'0 0.0
2018-Jul-16 13:30N 40°42' W 073°58'3 5.4
2018-Jul-16 13:00N 40°41' W 074°01'1 1.0
2018-Jul-16 12:30N 40°40' W 074°02'0 0.2
2018-Jul-16 12:00N 40°40' W 074°02'0 0.2
2018-Jul-16 11:30N 40°40' W 074°02'0 0.0
2018-Jul-16 11:00N 40°40' W 074°02'0 0.0
2018-Jul-16 10:30N 40°40' W 074°02'0 0.0
2018-Jul-16 10:00N 40°40' W 074°02'0 0.0
2018-Jul-16 09:30N 40°40' W 074°02'0 0.0
2018-Jul-16 08:57N 40°40' W 074°02'0 0.0
2018-Jul-16 08:30N 40°40' W 074°02'0 0.0
2018-Jul-16 08:00N 40°40' W 074°02'0 0.0
2018-Jul-16 07:30N 40°40' W 074°02'0 0.0
2018-Jul-16 07:00N 40°40' W 074°02'0 0.0
2018-Jul-16 06:30N 40°40' W 074°02'0 0.1
2018-Jul-16 06:00N 40°40' W 074°02'0 0.1
2018-Jul-16 05:30N 40°40' W 074°02'0 0.2
2018-Jul-16 05:00N 40°40' W 074°02'0 0.0
2018-Jul-16 04:30N 40°40' W 074°02'0 0.1
2018-Jul-16 04:00N 40°40' W 074°02'0 0.0
2018-Jul-16 03:30N 40°40' W 074°02'0 0.0
2018-Jul-16 03:00N 40°40' W 074°02'0 0.0
2018-Jul-16 02:30N 40°40' W 074°02'0 0.0
2018-Jul-16 02:00N 40°40' W 074°02'0 0.0
2018-Jul-16 01:30N 40°40' W 074°02'0 0.1
2018-Jul-16 01:00N 40°40' W 074°02'0 0.1
2018-Jul-16 00:30N 40°40' W 074°02'0 0.0
2018-Jul-15 23:57N 40°40' W 074°02'0 0.0
2018-Jul-15 23:30N 40°40' W 074°02'0 0.0
2018-Jul-15 23:00N 40°40' W 074°02'0 0.3
2018-Jul-15 22:30N 40°40' W 074°02'0 0.1
2018-Jul-15 22:00N 40°40' W 074°02'0 0.0
2018-Jul-15 21:30N 40°40' W 074°02'0 0.0
2018-Jul-15 21:00N 40°40' W 074°02'0 0.0
2018-Jul-15 20:30N 40°40' W 074°02'0 0.0
2018-Jul-15 20:00N 40°40' W 074°02'0 0.0
2018-Jul-15 19:25N 40°40' W 074°02'0 0.0
2018-Jul-15 19:00N 40°40' W 074°02'0 0.0
2018-Jul-15 18:24N 40°40' W 074°02'0 0.0
2018-Jul-15 18:00N 40°40' W 074°02'0 0.0
2018-Jul-15 17:30N 40°40' W 074°02'0 0.1
2018-Jul-15 16:15N 40°40' W 074°02'0 0.0
2018-Jul-15 15:48N 40°40' W 074°02'0 0.0
2018-Jul-15 15:13N 40°40' W 074°02'0 0.1
2018-Jul-15 15:00N 40°40' W 074°02'0 0.0
2018-Jul-15 14:10N 40°40' W 074°02'0 0.0
2018-Jul-15 14:00N 40°40' W 074°02'0 0.0
2018-Jul-15 13:27N 40°40' W 074°02'0 0.0
2018-Jul-15 12:55N 40°40' W 074°02'0 0.0
2018-Jul-15 12:24N 40°40' W 074°02'0 0.0
2018-Jul-15 12:00N 40°40' W 074°02'0 0.0
2018-Jul-15 11:28N 40°40' W 074°02'0 0.3
2018-Jul-15 10:58N 40°40' W 074°02'0 0.1
2018-Jul-15 10:30N 40°40' W 074°02'0 0.0
2018-Jul-15 10:00N 40°40' W 074°02'0 0.0
2018-Jul-15 09:30N 40°40' W 074°02'0 0.0
2018-Jul-15 09:00N 40°40' W 074°02'0 0.1
2018-Jul-15 08:30N 40°40' W 074°02'0 0.1
2018-Jul-15 08:00N 40°40' W 074°02'0 0.0
2018-Jul-15 07:30N 40°40' W 074°02'0 0.0
2018-Jul-15 07:00N 40°40' W 074°02'0 0.0
2018-Jul-15 06:30N 40°40' W 074°02'0 0.0
2018-Jul-15 06:00N 40°40' W 074°02'0 0.0
2018-Jul-15 05:30N 40°40' W 074°02'0 0.1
2018-Jul-15 05:00N 40°40' W 074°02'0 0.2
2018-Jul-15 04:30N 40°40' W 074°02'0 0.4
2018-Jul-15 04:00N 40°40' W 074°02'3 5.8
2018-Jul-15 03:30N 40°39' W 074°05'4 7.4
2018-Jul-15 03:00N 40°39' W 074°10'0 0.4
2018-Jul-15 02:25N 40°39' W 074°10'0 0.0
2018-Jul-14 10:53N 40°39' W 074°10'0 0.0
2018-Jul-14 10:23N 40°39' W 074°10'0 0.0
2018-Jul-14 09:59N 40°39' W 074°10'0 0.0
2018-Jul-14 09:29N 40°39' W 074°10'0 0.0
2018-Jul-14 08:59N 40°39' W 074°10'0 0.0
2018-Jul-14 08:26N 40°39' W 074°10'0 0.0
2018-Jul-14 07:59N 40°39' W 074°10'0 0.0
2018-Jul-14 07:17N 40°39' W 074°10'0 0.0
2018-Jul-14 06:56N 40°39' W 074°10'0 0.0
2018-Jul-14 06:29N 40°39' W 074°10'0 0.0
2018-Jul-14 05:59N 40°39' W 074°10'0 0.0
2018-Jul-14 05:17N 40°39' W 074°10'0 0.0
2018-Jul-14 04:11N 40°39' W 074°10'0 0.0
2018-Jul-14 03:35N 40°39' W 074°10'0 0.0
2018-Jul-14 03:29N 40°39' W 074°10'0 0.0
2018-Jul-14 02:59N 40°39' W 074°10'0 0.0
2018-Jul-14 02:29N 40°39' W 074°10'0 0.0
2018-Jul-14 01:59N 40°39' W 074°10'0 0.0
2018-Jul-14 01:29N 40°39' W 074°10'0 0.0
2018-Jul-14 00:59N 40°39' W 074°10'0 0.0
2018-Jul-14 00:05N 40°39' W 074°10'0 0.0
2018-Jul-13 23:41N 40°39' W 074°10'0 0.0
2018-Jul-13 23:29N 40°39' W 074°10'0 0.0
2018-Jul-13 22:59N 40°39' W 074°10'0 0.0
2018-Jul-13 22:29N 40°39' W 074°10'0 0.0
2018-Jul-13 21:59N 40°39' W 074°10'0 0.0
2018-Jul-13 20:41N 40°39' W 074°10'0 0.0
2018-Jul-13 20:23N 40°39' W 074°10'0 0.0
2018-Jul-13 19:17N 40°39' W 074°10'0 0.0
2018-Jul-13 18:53N 40°39' W 074°10'0 0.0
2018-Jul-13 18:17N 40°39' W 074°10'0 0.0
2018-Jul-13 17:56N 40°39' W 074°10'0 0.0
2018-Jul-13 17:29N 40°39' W 074°10'0 0.0
2018-Jul-13 16:59N 40°39' W 074°10'0 0.0
2018-Jul-13 16:29N 40°39' W 074°10'0 0.0
2018-Jul-13 15:59N 40°39' W 074°10'0 0.0
2018-Jul-13 15:29N 40°39' W 074°10'0 0.0
2018-Jul-13 14:53N 40°39' W 074°10'0 0.0
2018-Jul-13 13:59N 40°39' W 074°10'0 0.0
2018-Jul-13 13:23N 40°39' W 074°10'0 0.0
2018-Jul-13 12:59N 40°39' W 074°10'0 0.0
2018-Jul-13 12:26N 40°39' W 074°10'0 0.0
2018-Jul-13 11:59N 40°39' W 074°10'0 0.0
2018-Jul-13 11:29N 40°39' W 074°10'0 0.0
2018-Jul-13 10:53N 40°39' W 074°10'0 0.0
2018-Jul-13 10:29N 40°39' W 074°10'0 0.0
2018-Jul-13 09:59N 40°39' W 074°10'0 0.0
2018-Jul-13 09:29N 40°39' W 074°10'0 0.0
2018-Jul-13 08:59N 40°39' W 074°10'0 0.0
2018-Jul-13 08:29N 40°39' W 074°10'0 0.0
2018-Jul-13 07:59N 40°39' W 074°10'0 0.0
2018-Jul-13 07:29N 40°39' W 074°10'0 0.0
2018-Jul-13 06:59N 40°39' W 074°10'0 0.0
2018-Jul-13 06:29N 40°39' W 074°10'0 0.0
2018-Jul-13 05:59N 40°39' W 074°10'0 0.0
2018-Jul-13 05:29N 40°39' W 074°10'0 0.0
2018-Jul-13 04:59N 40°39' W 074°10'0 0.0
2018-Jul-13 04:29N 40°39' W 074°10'0 0.0
2018-Jul-13 03:59N 40°39' W 074°10'0 0.0
2018-Jul-13 03:29N 40°39' W 074°10'0 0.0
2018-Jul-13 02:59N 40°39' W 074°10'0 0.0
2018-Jul-13 02:29N 40°39' W 074°10'0 0.0
2018-Jul-13 01:59N 40°39' W 074°10'0 0.0
2018-Jul-13 01:26N 40°39' W 074°10'0 0.0
2018-Jul-13 00:59N 40°39' W 074°10'0 0.0
2018-Jul-13 00:29N 40°39' W 074°10'0 0.0
2018-Jul-12 23:59N 40°39' W 074°10'0 0.0
2018-Jul-12 23:29N 40°39' W 074°10'0 0.0
2018-Jul-12 22:59N 40°39' W 074°10'0 0.0
2018-Jul-12 22:29N 40°39' W 074°10'0 0.0
2018-Jul-12 21:59N 40°39' W 074°10'0 0.0
2018-Jul-12 21:23N 40°39' W 074°10'0 0.0
2018-Jul-12 20:59N 40°39' W 074°10'0 0.0
2018-Jul-12 20:29N 40°39' W 074°10'0 0.0
2018-Jul-12 19:59N 40°39' W 074°10'0 0.0
2018-Jul-12 19:29N 40°39' W 074°10'0 0.0
2018-Jul-12 18:59N 40°39' W 074°10'0 0.0
2018-Jul-12 18:29N 40°39' W 074°10'0 0.0
2018-Jul-12 17:59N 40°39' W 074°10'0 0.0
2018-Jul-12 17:26N 40°39' W 074°10'0 0.0
2018-Jul-12 16:59N 40°39' W 074°10'0 0.0
2018-Jul-12 16:29N 40°39' W 074°10'0 0.0
2018-Jul-12 15:59N 40°39' W 074°10'0 0.0
2018-Jul-12 15:29N 40°39' W 074°10'0 0.0
2018-Jul-12 14:59N 40°39' W 074°10'0 0.0
2018-Jul-12 14:29N 40°39' W 074°10'0 0.0
2018-Jul-12 13:59N 40°39' W 074°10'0 0.0
2018-Jul-12 13:23N 40°39' W 074°10'0 0.0
2018-Jul-12 12:59N 40°39' W 074°10'0 0.0
2018-Jul-12 12:29N 40°39' W 074°10'0 0.0
2018-Jul-12 11:59N 40°39' W 074°10'0 0.0
2018-Jul-12 11:29N 40°39' W 074°10'0 0.0
2018-Jul-12 10:56N 40°39' W 074°10'0 0.0
2018-Jul-12 10:29N 40°39' W 074°10'0 0.0
2018-Jul-12 09:59N 40°39' W 074°10'0 0.0
2018-Jul-12 09:26N 40°39' W 074°10'0 0.0
2018-Jul-12 08:59N 40°39' W 074°10'0 0.0
2018-Jul-12 08:29N 40°39' W 074°10'0 0.0
2018-Jul-12 07:59N 40°39' W 074°10'0 0.0
2018-Jul-12 07:29N 40°39' W 074°10'0 0.0
2018-Jul-12 06:50N 40°39' W 074°10'0 0.0
2018-Jul-12 06:26N 40°39' W 074°10'0 0.0
2018-Jul-12 05:59N 40°39' W 074°10'0 0.0
2018-Jul-12 05:29N 40°39' W 074°10'0 0.0
2018-Jul-12 04:59N 40°39' W 074°10'0 0.0
2018-Jul-12 04:29N 40°39' W 074°10'0 0.0
2018-Jul-12 03:59N 40°39' W 074°10'0 0.0
2018-Jul-12 03:29N 40°39' W 074°10'0 0.0
2018-Jul-12 02:59N 40°39' W 074°10'0 0.0
2018-Jul-12 02:29N 40°39' W 074°10'0 0.0
2018-Jul-12 01:59N 40°39' W 074°10'0 0.0
2018-Jul-12 01:29N 40°39' W 074°10'0 0.0
2018-Jul-12 00:59N 40°39' W 074°10'0 0.0
2018-Jul-12 00:29N 40°39' W 074°10'0 0.0
2018-Jul-11 23:56N 40°39' W 074°10'0 0.0
2018-Jul-11 23:11N 40°39' W 074°10'0 0.0
2018-Jul-11 22:53N 40°39' W 074°10'0 0.0
2018-Jul-11 22:29N 40°39' W 074°10'0 0.0
2018-Jul-11 21:59N 40°39' W 074°10'0 0.0
2018-Jul-11 20:05N 40°39' W 074°10'0 0.0
2018-Jul-11 19:53N 40°39' W 074°10'0 0.0
2018-Jul-11 19:23N 40°39' W 074°10'0 0.0
2018-Jul-11 18:59N 40°39' W 074°10'0 0.0
2018-Jul-11 18:26N 40°39' W 074°10'0 0.0
2018-Jul-11 17:53N 40°39' W 074°10'0 0.0
2018-Jul-11 17:23N 40°39' W 074°10'0 0.0
2018-Jul-11 16:53N 40°39' W 074°10'0 0.0
2018-Jul-11 16:29N 40°39' W 074°10'0 0.0
2018-Jul-11 15:59N 40°39' W 074°10'0 0.0
2018-Jul-11 15:29N 40°39' W 074°10'0 0.0
2018-Jul-11 14:53N 40°39' W 074°10'0 0.0
2018-Jul-11 14:29N 40°39' W 074°10'0 0.1
2018-Jul-11 14:00N 40°39' W 074°10'0 0.2
2018-Jul-11 13:27N 40°39' W 074°10'1 1.2
2018-Jul-11 13:00N 40°38' W 074°09'3 6.1
2018-Jul-11 12:30N 40°39' W 074°05'2 3.6
2018-Jul-11 12:00N 40°39' W 074°03'3 5.9
2018-Jul-11 11:30N 40°39' W 074°07'2 3.2
2018-Jul-11 11:00N 40°38' W 074°09'3 5.8
2018-Jul-11 10:30N 40°39' W 074°05'2 4.3
2018-Jul-11 09:58N 40°40' W 074°02'0 0.2
2018-Jul-11 09:28N 40°40' W 074°02'0 0.1
2018-Jul-11 08:58N 40°40' W 074°02'0 0.1
2018-Jul-11 08:28N 40°40' W 074°02'0 0.1
2018-Jul-11 07:58N 40°40' W 074°02'0 0.1
2018-Jul-11 07:28N 40°40' W 074°02'0 0.1
2018-Jul-11 06:58N 40°40' W 074°03'0 0.0
2018-Jul-11 06:28N 40°40' W 074°02'0 0.0
2018-Jul-11 05:58N 40°40' W 074°03'0 0.0
2018-Jul-11 05:28N 40°40' W 074°03'0 0.0
2018-Jul-11 04:58N 40°40' W 074°03'0 0.0
2018-Jul-11 04:28N 40°40' W 074°03'0 0.0
2018-Jul-11 03:58N 40°40' W 074°03'0 0.0
2018-Jul-11 03:28N 40°40' W 074°03'0 0.0
2018-Jul-11 02:58N 40°40' W 074°03'0 0.0
2018-Jul-11 02:28N 40°40' W 074°03'0 0.0
2018-Jul-11 01:58N 40°40' W 074°03'0 0.2
2018-Jul-11 01:28N 40°40' W 074°03'0 0.3
2018-Jul-11 00:58N 40°40' W 074°02'0 0.0
2018-Jul-11 00:28N 40°40' W 074°02'0 0.1
2018-Jul-10 23:58N 40°40' W 074°02'0 0.0
2018-Jul-10 23:28N 40°40' W 074°02'0 0.0
2018-Jul-10 22:58N 40°40' W 074°02'0 0.0
2018-Jul-10 22:28N 40°40' W 074°02'0 0.0
2018-Jul-10 21:58N 40°40' W 074°02'0 0.0
2018-Jul-10 21:28N 40°40' W 074°02'0 0.0
2018-Jul-10 20:55N 40°40' W 074°02'0 0.1
2018-Jul-10 20:28N 40°40' W 074°02'0 0.0
2018-Jul-10 19:58N 40°40' W 074°02'0 0.2
2018-Jul-10 19:28N 40°40' W 074°02'0 0.2
2018-Jul-10 18:55N 40°40' W 074°02'0 0.0
2018-Jul-10 18:28N 40°40' W 074°02'0 0.0
2018-Jul-10 17:58N 40°40' W 074°02'0 0.0
2018-Jul-10 17:28N 40°40' W 074°03'0 0.0
2018-Jul-10 16:55N 40°40' W 074°03'0 0.0
2018-Jul-10 16:28N 40°40' W 074°03'0 0.0
2018-Jul-10 15:58N 40°40' W 074°03'0 0.0
2018-Jul-10 15:28N 40°40' W 074°03'0 0.0
2018-Jul-10 14:58N 40°40' W 074°03'0 0.0
2018-Jul-10 14:28N 40°40' W 074°02'0 0.1
2018-Jul-10 13:58N 40°40' W 074°03'0 0.0
2018-Jul-10 13:28N 40°40' W 074°03'0 0.0
2018-Jul-10 12:58N 40°40' W 074°03'0 0.3
2018-Jul-10 12:28N 40°40' W 074°02'0 0.2
2018-Jul-10 11:58N 40°40' W 074°02'0 0.0
2018-Jul-10 11:28N 40°40' W 074°02'0 0.1
2018-Jul-10 10:58N 40°40' W 074°02'0 0.0
2018-Jul-10 10:28N 40°40' W 074°02'0 0.0
2018-Jul-10 09:58N 40°40' W 074°02'0 0.0
2018-Jul-10 09:28N 40°40' W 074°02'0 0.1
2018-Jul-10 08:58N 40°40' W 074°02'0 0.1
2018-Jul-10 08:28N 40°40' W 074°02'0 0.1
2018-Jul-10 07:58N 40°40' W 074°02'0 0.1
2018-Jul-10 07:28N 40°40' W 074°02'0 0.2
2018-Jul-10 06:58N 40°40' W 074°02'0 0.0
2018-Jul-10 06:28N 40°40' W 074°02'0 0.2
2018-Jul-10 05:58N 40°40' W 074°03'0 0.1
2018-Jul-10 05:28N 40°40' W 074°03'0 0.1
2018-Jul-10 04:58N 40°40' W 074°02'2 4.6
2018-Jul-10 04:30N 40°39' W 074°05'3 6.3
2018-Jul-10 03:58N 40°38' W 074°09'0 0.0
2018-Jul-10 03:30N 40°38' W 074°09'0 0.0
2018-Jul-10 02:58N 40°38' W 074°09'0 0.0
2018-Jul-10 02:28N 40°38' W 074°09'0 0.0
2018-Jul-10 01:55N 40°38' W 074°09'0 0.0
2018-Jul-10 01:28N 40°38' W 074°09'0 0.0
2018-Jul-10 00:58N 40°38' W 074°09'0 0.0
2018-Jul-10 00:28N 40°38' W 074°09'0 0.0
2018-Jul-09 23:55N 40°38' W 074°09'0 0.0
2018-Jul-09 23:28N 40°38' W 074°10'0 0.0
2018-Jul-09 22:58N 40°38' W 074°10'0 0.0
2018-Jul-09 22:28N 40°38' W 074°09'0 0.0
2018-Jul-09 21:58N 40°38' W 074°10'0 0.0
2018-Jul-09 21:28N 40°38' W 074°09'0 0.0
2018-Jul-09 20:58N 40°38' W 074°09'0 0.0
2018-Jul-09 20:28N 40°38' W 074°09'0 0.0
2018-Jul-09 19:58N 40°38' W 074°10'0 0.0
2018-Jul-09 19:28N 40°38' W 074°10'0 0.0
2018-Jul-09 19:00N 40°38' W 074°09'0 0.8
2018-Jul-09 18:30N 40°39' W 074°10'0 0.0
2018-Jul-09 18:00N 40°39' W 074°10'0 0.0
2018-Jul-09 17:30N 40°39' W 074°10'0 0.0
2018-Jul-09 17:00N 40°39' W 074°10'0 0.0
2018-Jul-09 16:30N 40°39' W 074°10'0 0.3
2018-Jul-09 16:00N 40°39' W 074°10'0 0.6
2018-Jul-09 15:30N 40°38' W 074°09'0 0.0
2018-Jul-09 15:00N 40°38' W 074°10'0 0.0
2018-Jul-09 14:29N 40°38' W 074°10'0 0.0
2018-Jul-09 14:00N 40°38' W 074°09'0 0.0
2018-Jul-09 13:30N 40°38' W 074°10'0 0.0
2018-Jul-09 13:00N 40°38' W 074°09'0 0.0
2018-Jul-09 12:30N 40°38' W 074°10'0 0.0
2018-Jul-09 12:00N 40°38' W 074°10'0 0.0
2018-Jul-09 11:30N 40°38' W 074°10'0 0.0
2018-Jul-09 11:00N 40°38' W 074°09'0 0.0
2018-Jul-09 10:30N 40°38' W 074°09'0 0.0
2018-Jul-09 10:00N 40°38' W 074°10'0 0.0
2018-Jul-09 09:30N 40°38' W 074°09'0 0.5
2018-Jul-09 09:00N 40°38' W 074°09'3 6.1
2018-Jul-09 08:30N 40°39' W 074°05'3 5.5
2018-Jul-09 08:00N 40°41' W 074°02'3 5.9
2018-Jul-09 07:30N 40°44' W 074°01'3 6.3
2018-Jul-09 07:00N 40°47' W 074°00'2 3.8
2018-Jul-09 06:22N 40°49' W 073°59'0 0.0
2018-Jul-09 03:40N 40°49' W 073°59'0 0.0
2018-Jul-09 02:46N 40°49' W 073°59'0 0.0
2018-Jul-08 07:34N 40°49' W 073°58'0 0.2
2018-Jul-08 07:28N 40°49' W 073°58'0 0.1
2018-Jul-08 06:52N 40°49' W 073°59'0 0.1
2018-Jul-08 06:22N 40°49' W 073°59'0 0.0
2018-Jul-08 05:04N 40°49' W 073°58'0 0.0
2018-Jul-08 04:58N 40°49' W 073°58'0 0.0
2018-Jul-08 04:28N 40°49' W 073°59'0 0.0
2018-Jul-07 19:04N 40°49' W 073°58'0 0.0
2018-Jul-07 18:34N 40°49' W 073°58'0 0.0
2018-Jul-07 18:22N 40°49' W 073°58'0 0.0
2018-Jul-07 17:58N 40°49' W 073°58'0 0.2
2018-Jul-07 17:22N 40°49' W 073°59'0 0.2
2018-Jul-07 16:58N 40°49' W 073°59'0 0.0
2018-Jul-07 14:52N 40°49' W 073°59'0 0.0
2018-Jul-07 14:22N 40°49' W 073°59'0 0.0
2018-Jul-07 13:52N 40°49' W 073°59'0 0.0
2018-Jul-07 10:34N 40°49' W 073°59'0 0.0
2018-Jul-07 10:22N 40°49' W 073°59'0 0.0
2018-Jul-07 08:58N 40°49' W 073°59'0 0.1
2018-Jul-07 08:28N 40°49' W 073°59'0 0.1
2018-Jul-07 07:40N 40°49' W 073°59'0 0.0
2018-Jul-07 06:40N 40°49' W 073°59'0 0.1
2018-Jul-07 05:46N 40°49' W 073°58'  

Dump ship's entire track history